Time,TemperatureF,DewpointF,PressureIn,WindDirection,WindDirectionDegrees,WindSpeedMPH,WindSpeedGustMPH,Humidity,HourlyPrecipIn,Conditions,Clouds,dailyrainin,SoftwareType,DateUTC
2013-03-27 00:03:00,48.6,-99.9,24.95,ESE,119,2.0,4.5,-999,0.00,,,-99.99,FreeWX 2.04,2013-03-27 06:03:00,
2013-03-27 00:08:00,48.2,-99.9,24.92,ESE,119,1.0,2.7,-999,0.00,,,-99.99,FreeWX 2.04,2013-03-27 06:08:00,
2013-03-27 00:13:00,48.7,-99.9,24.92,ESE,119,1.0,4.0,-999,0.00,,,-99.99,FreeWX 2.04,2013-03-27 06:13:00,
2013-03-27 00:18:00,48.9,-99.9,24.92,ESE,119,1.0,3.6,-999,0.00,,,-99.99,FreeWX 2.04,2013-03-27 06:18:00,
2013-03-27 00:23:00,48.6,-99.9,24.95,ESE,119,1.0,5.8,-999,0.00,,,-99.99,FreeWX 2.04,2013-03-27 06:23:00,
2013-03-27 00:28:00,48.4,-99.9,24.95,ESE,122,1.0,5.8,-999,0.00,,,-99.99,FreeWX 2.04,2013-03-27 06:28:00,
2013-03-27 00:33:00,48.2,-99.9,24.95,SE,124,1.0,3.6,-999,0.00,,,-99.99,FreeWX 2.04,2013-03-27 06:33:00,
2013-03-27 00:38:00,48.4,-99.9,24.95,ESE,121,2.0,5.8,-999,0.00,,,-99.99,FreeWX 2.04,2013-03-27 06:38:00,
2013-03-27 00:43:00,48.0,-99.9,24.95,ESE,111,2.0,4.9,-999,0.00,,,-99.99,FreeWX 2.04,2013-03-27 06:43:00,
2013-03-27 00:48:00,47.1,-99.9,24.95,ESE,119,3.0,5.8,-999,0.00,,,-99.99,FreeWX 2.04,2013-03-27 06:48:00,
2013-03-27 00:53:00,45.3,-4.2,24.95,SSE,154,5.0,6.9,12,0.00,,,-99.99,FreeWX 2.04,2013-03-27 06:53:00,
2013-03-27 00:58:00,44.1,-5.3,24.95,South,171,5.0,6.9,12,0.00,,,-99.99,FreeWX 2.04,2013-03-27 06:58:00,
2013-03-27 01:03:00,43.2,-4.4,24.95,South,177,5.0,5.8,13,0.00,,,-99.99,FreeWX 2.04,2013-03-27 07:03:00,
2013-03-27 01:08:00,43.0,-1.5,24.95,South,182,5.0,6.3,15,0.00,,,-99.99,FreeWX 2.04,2013-03-27 07:08:00,
2013-03-27 01:13:00,43.0,-1.5,24.95,South,181,5.0,7.4,15,0.00,,,-99.99,FreeWX 2.04,2013-03-27 07:13:00,
2013-03-27 01:18:00,44.6,-0.2,24.95,South,183,6.0,12.1,15,0.00,,,-99.99,FreeWX 2.04,2013-03-27 07:18:00,
2013-03-27 01:23:00,45.9,-3.8,24.95,SSW,197,9.0,14.8,12,0.00,,,-99.99,FreeWX 2.04,2013-03-27 07:23:00,
2013-03-27 01:28:00,46.2,-3.5,24.95,SSW,200,10.0,16.3,12,0.00,,,-99.99,FreeWX 2.04,2013-03-27 07:28:00,
2013-03-27 01:33:00,46.0,-3.6,24.95,SSW,196,10.0,11.2,12,0.00,,,-99.99,FreeWX 2.04,2013-03-27 07:33:00,
2013-03-27 01:38:00,45.5,-4.2,24.95,SSW,196,7.0,8.3,12,0.00,,,-99.99,FreeWX 2.04,2013-03-27 07:38:00,
2013-03-27 01:43:00,45.1,-4.4,24.95,South,184,5.0,5.4,12,0.00,,,-99.99,FreeWX 2.04,2013-03-27 07:43:00,
2013-03-27 01:48:00,44.8,-4.7,24.95,South,176,2.0,0.0,12,0.00,,,-99.99,FreeWX 2.04,2013-03-27 07:48:00,
2013-03-27 01:53:00,43.7,-3.8,24.95,South,176,2.0,5.4,13,0.00,,,-99.99,FreeWX 2.04,2013-03-27 07:53:00,
2013-03-27 01:58:00,43.3,-1.1,24.95,SE,139,5.0,7.8,15,0.00,,,-99.99,FreeWX 2.04,2013-03-27 07:58:00,
2013-03-27 02:03:00,43.3,-1.1,24.95,North,4,6.0,7.8,15,0.00,,,-99.99,FreeWX 2.04,2013-03-27 08:03:00,
2013-03-27 02:08:00,43.7,-0.9,24.95,North,5,4.0,4.9,15,0.00,,,-99.99,FreeWX 2.04,2013-03-27 08:08:00,
2013-03-27 02:13:00,44.4,-4.9,24.95,North,5,2.0,4.0,12,0.00,,,-99.99,FreeWX 2.04,2013-03-27 08:13:00,
2013-03-27 02:18:00,45.0,-4.5,24.95,North,-999,0.0,3.6,12,0.00,,,-99.99,FreeWX 2.04,2013-03-27 08:18:00,
2013-03-27 02:23:00,43.5,-4.0,24.95,North,6,2.0,5.8,13,0.00,,,-99.99,FreeWX 2.04,2013-03-27 08:23:00,
2013-03-27 02:28:00,44.1,-0.6,24.95,NNE,12,4.0,6.9,15,0.00,,,-99.99,FreeWX 2.04,2013-03-27 08:28:00,
2013-03-27 02:33:00,45.0,-4.5,24.95,East,81,3.0,6.7,12,0.00,,,-99.99,FreeWX 2.04,2013-03-27 08:33:00,
2013-03-27 02:38:00,44.1,-5.3,24.95,SE,133,2.0,4.9,12,0.00,,,-99.99,FreeWX 2.04,2013-03-27 08:38:00,
2013-03-27 02:43:00,44.8,0.0,24.95,SE,133,1.0,3.6,15,0.00,,,-99.99,FreeWX 2.04,2013-03-27 08:43:00,
2013-03-27 02:48:00,45.3,0.5,24.95,SE,133,1.0,4.0,15,0.00,,,-99.99,FreeWX 2.04,2013-03-27 08:48:00,
2013-03-27 02:53:00,46.2,-0.2,24.95,SE,128,2.0,6.9,14,0.00,,,-99.99,FreeWX 2.04,2013-03-27 08:53:00,
2013-03-27 02:58:00,46.8,0.1,24.95,ESE,109,3.0,5.4,14,0.00,,,-99.99,FreeWX 2.04,2013-03-27 08:58:00,
2013-03-27 03:03:00,46.8,0.1,24.95,East,94,2.0,3.6,14,0.00,,,-99.99,FreeWX 2.04,2013-03-27 09:03:00,
2013-03-27 03:08:00,46.8,0.1,24.95,East,93,2.0,5.4,14,0.00,,,-99.99,FreeWX 2.04,2013-03-27 09:08:00,
2013-03-27 03:13:00,45.9,-0.6,24.95,East,92,3.0,5.8,14,0.00,,,-99.99,FreeWX 2.04,2013-03-27 09:13:00,
2013-03-27 03:18:00,44.8,0.0,24.95,NE,55,4.0,7.4,15,0.00,,,-99.99,FreeWX 2.04,2013-03-27 09:18:00,
2013-03-27 03:23:00,45.9,-0.6,24.98,NNE,14,4.0,4.9,14,0.00,,,-99.99,FreeWX 2.04,2013-03-27 09:23:00,
2013-03-27 03:28:00,45.9,-0.6,24.98,North,9,4.0,6.3,14,0.00,,,-99.99,FreeWX 2.04,2013-03-27 09:28:00,
2013-03-27 03:33:00,44.6,-0.2,24.98,NNE,12,4.0,6.9,15,0.00,,,-99.99,FreeWX 2.04,2013-03-27 09:33:00,
2013-03-27 03:38:00,43.3,-1.1,24.95,NNE,19,2.0,4.5,15,0.00,,,-99.99,FreeWX 2.04,2013-03-27 09:38:00,
2013-03-27 03:43:00,44.8,0.0,24.95,NNE,19,2.0,5.4,15,0.00,,,-99.99,FreeWX 2.04,2013-03-27 09:43:00,
2013-03-27 03:48:00,43.3,-1.1,24.95,NNE,21,4.0,5.4,15,0.00,,,-99.99,FreeWX 2.04,2013-03-27 09:48:00,
2013-03-27 03:53:00,42.4,-1.8,24.98,NNE,19,5.0,6.7,15,0.00,,,-99.99,FreeWX 2.04,2013-03-27 09:53:00,
2013-03-27 03:58:00,43.7,-0.9,24.98,North,10,5.0,6.7,15,0.00,,,-99.99,FreeWX 2.04,2013-03-27 09:58:00,
2013-03-27 04:03:00,43.3,2.7,24.98,NNE,15,5.0,8.3,18,0.00,,,-99.99,FreeWX 2.04,2013-03-27 10:03:00,
2013-03-27 04:08:00,42.4,1.9,24.98,NNE,29,4.0,5.4,18,0.00,,,-99.99,FreeWX 2.04,2013-03-27 10:08:00,
2013-03-27 04:13:00,42.4,1.9,24.98,NE,34,3.0,5.4,18,0.00,,,-99.99,FreeWX 2.04,2013-03-27 10:13:00,
2013-03-27 04:18:00,42.6,2.1,24.98,NE,35,3.0,4.9,18,0.00,,,-99.99,FreeWX 2.04,2013-03-27 10:18:00,
2013-03-27 04:23:00,44.6,2.5,24.98,NNE,32,3.0,5.8,17,0.00,,,-99.99,FreeWX 2.04,2013-03-27 10:23:00,
2013-03-27 04:28:00,44.8,2.7,24.98,NNE,27,4.0,6.7,17,0.00,,,-99.99,FreeWX 2.04,2013-03-27 10:28:00,
2013-03-27 04:33:00,44.4,2.3,24.98,NNE,22,5.0,6.9,17,0.00,,,-99.99,FreeWX 2.04,2013-03-27 10:33:00,
2013-03-27 04:38:00,44.6,2.5,24.98,NNE,16,4.0,4.9,17,0.00,,,-99.99,FreeWX 2.04,2013-03-27 10:38:00,
2013-03-27 04:43:00,44.2,2.3,24.98,NNE,14,3.0,4.5,17,0.00,,,-99.99,FreeWX 2.04,2013-03-27 10:43:00,
2013-03-27 04:48:00,44.8,2.7,24.98,NNE,14,3.0,5.4,17,0.00,,,-99.99,FreeWX 2.04,2013-03-27 10:48:00,
2013-03-27 04:53:00,45.0,2.8,24.98,NNE,13,3.0,5.4,17,0.00,,,-99.99,FreeWX 2.04,2013-03-27 10:53:00,
2013-03-27 04:58:00,44.4,2.3,24.98,NNE,13,2.0,4.5,17,0.00,,,-99.99,FreeWX 2.04,2013-03-27 10:58:00,
2013-03-27 05:04:00,44.2,2.3,24.98,NNE,14,2.0,5.8,17,0.00,,,-99.99,FreeWX 2.04,2013-03-27 11:04:00,
2013-03-27 05:09:00,43.3,2.7,24.98,NNE,17,3.0,4.9,18,0.00,,,-99.99,FreeWX 2.04,2013-03-27 11:09:00,
2013-03-27 05:14:00,42.4,1.9,24.98,NNE,18,3.0,4.9,18,0.00,,,-99.99,FreeWX 2.04,2013-03-27 11:14:00,
2013-03-27 05:19:00,41.9,1.6,24.98,NNE,18,3.0,4.5,18,0.00,,,-99.99,FreeWX 2.04,2013-03-27 11:19:00,
2013-03-27 05:24:00,42.4,4.3,24.98,NNE,18,3.0,4.0,20,0.00,,,-99.99,FreeWX 2.04,2013-03-27 11:24:00,
2013-03-27 05:29:00,43.3,5.0,24.98,NNE,18,2.0,4.0,20,0.00,,,-99.99,FreeWX 2.04,2013-03-27 11:29:00,
2013-03-27 05:34:00,43.3,5.0,24.98,NNE,18,2.0,3.1,20,0.00,,,-99.99,FreeWX 2.04,2013-03-27 11:34:00,
2013-03-27 05:39:00,42.6,4.5,24.98,NNE,18,1.0,4.0,20,0.00,,,-99.99,FreeWX 2.04,2013-03-27 11:39:00,
2013-03-27 05:44:00,41.9,4.8,24.98,NNE,20,2.0,5.4,21,0.00,,,-99.99,FreeWX 2.04,2013-03-27 11:44:00,
2013-03-27 05:49:00,41.5,6.6,24.98,NNE,22,3.0,4.9,23,0.00,,,-99.99,FreeWX 2.04,2013-03-27 11:49:00,
2013-03-27 05:54:00,42.1,11.3,25.01,NNE,22,4.0,5.4,28,0.00,,,-99.99,FreeWX 2.04,2013-03-27 11:54:00,
2013-03-27 05:59:00,42.1,11.3,25.01,NNE,20,4.0,6.9,28,0.00,,,-99.99,FreeWX 2.04,2013-03-27 11:59:00,
2013-03-27 06:04:00,42.4,12.4,25.01,NNE,20,5.0,8.3,29,0.00,,,-99.99,FreeWX 2.04,2013-03-27 12:04:00,
2013-03-27 06:09:00,42.4,12.4,25.01,NNE,21,6.0,8.7,29,0.00,,,-99.99,FreeWX 2.04,2013-03-27 12:09:00,
2013-03-27 06:14:00,42.1,12.2,25.01,NNE,24,6.0,8.3,29,0.00,,,-99.99,FreeWX 2.04,2013-03-27 12:14:00,
2013-03-27 06:19:00,42.6,12.6,25.01,NNE,27,6.0,10.1,29,0.00,,,-99.99,FreeWX 2.04,2013-03-27 12:19:00,
2013-03-27 06:24:00,44.1,14.7,25.01,NNE,25,6.0,8.3,30,0.00,,,-99.99,FreeWX 2.04,2013-03-27 12:24:00,
2013-03-27 06:29:00,45.0,14.7,25.01,NNE,17,6.0,8.3,29,0.00,,,-99.99,FreeWX 2.04,2013-03-27 12:29:00,
2013-03-27 06:34:00,43.7,13.6,25.01,NNE,15,6.0,9.2,29,0.00,,,-99.99,FreeWX 2.04,2013-03-27 12:34:00,
2013-03-27 06:39:00,44.1,13.8,25.01,NNE,16,6.0,8.3,29,0.00,,,-99.99,FreeWX 2.04,2013-03-27 12:39:00,
2013-03-27 06:44:00,44.2,14.0,25.01,NNE,14,6.0,10.5,29,0.00,,,-99.99,FreeWX 2.04,2013-03-27 12:44:00,
2013-03-27 06:49:00,43.0,13.6,25.01,NNE,20,7.0,12.1,30,0.00,,,-99.99,FreeWX 2.04,2013-03-27 12:49:00,
2013-03-27 06:54:00,42.8,14.4,25.01,NNE,29,6.0,9.2,31,0.00,,,-99.99,FreeWX 2.04,2013-03-27 12:54:00,
2013-03-27 06:59:00,42.4,14.0,25.01,NNE,26,6.0,9.6,31,0.00,,,-99.99,FreeWX 2.04,2013-03-27 12:59:00,
2013-03-27 07:04:00,44.2,15.6,25.01,NNE,26,6.0,8.7,31,0.00,,,-99.99,FreeWX 2.04,2013-03-27 13:04:00,
2013-03-27 07:09:00,42.8,14.4,25.01,NNE,28,5.0,7.4,31,0.00,,,-99.99,FreeWX 2.04,2013-03-27 13:09:00,
2013-03-27 07:14:00,41.7,14.0,25.01,NNE,26,6.0,10.1,32,0.00,,,-99.99,FreeWX 2.04,2013-03-27 13:14:00,
2013-03-27 07:19:00,42.3,13.8,25.01,NNE,29,6.0,9.6,31,0.00,,,-99.99,FreeWX 2.04,2013-03-27 13:19:00,
2013-03-27 07:24:00,42.1,14.4,25.01,NNE,28,6.0,8.3,32,0.00,,,-99.99,FreeWX 2.04,2013-03-27 13:24:00,
2013-03-27 07:29:00,43.9,15.3,25.01,NNE,22,6.0,10.1,31,0.00,,,-99.99,FreeWX 2.04,2013-03-27 13:29:00,
2013-03-27 07:34:00,44.6,15.8,25.01,NNE,14,7.0,11.0,31,0.00,,,-99.99,FreeWX 2.04,2013-03-27 13:34:00,
2013-03-27 07:39:00,43.7,15.1,25.04,NNE,14,8.0,12.1,31,0.00,,,-99.99,FreeWX 2.04,2013-03-27 13:39:00,
2013-03-27 07:44:00,44.1,16.2,25.04,NNE,23,7.0,10.5,32,0.00,,,-99.99,FreeWX 2.04,2013-03-27 13:44:00,
2013-03-27 07:49:00,43.7,15.8,25.04,NNE,27,6.0,9.2,32,0.00,,,-99.99,FreeWX 2.04,2013-03-27 13:49:00,
2013-03-27 07:54:00,45.1,17.1,25.04,NNE,24,6.0,10.1,32,0.00,,,-99.99,FreeWX 2.04,2013-03-27 13:54:00,
2013-03-27 07:59:00,45.9,16.9,25.04,North,10,6.0,8.3,31,0.00,,,-99.99,FreeWX 2.04,2013-03-27 13:59:00,
2013-03-27 08:04:00,46.0,17.1,25.04,North,10,6.0,8.7,31,0.00,,,-99.99,FreeWX 2.04,2013-03-27 14:04:00,
2013-03-27 08:09:00,46.2,16.5,25.04,NNE,20,6.0,8.7,30,0.00,,,-99.99,FreeWX 2.04,2013-03-27 14:09:00,
2013-03-27 08:14:00,47.3,17.4,25.04,North,10,5.0,5.8,30,0.00,,,-99.99,FreeWX 2.04,2013-03-27 14:14:00,
2013-03-27 08:19:00,47.1,16.5,25.04,North,356,4.0,6.9,29,0.00,,,-99.99,FreeWX 2.04,2013-03-27 14:19:00,
2013-03-27 08:24:00,47.8,16.3,25.04,NNW,343,4.0,5.8,28,0.00,,,-99.99,FreeWX 2.04,2013-03-27 14:24:00,
2013-03-27 08:29:00,47.7,15.3,25.04,NNW,348,4.0,7.4,27,0.00,,,-99.99,FreeWX 2.04,2013-03-27 14:29:00,
2013-03-27 08:34:00,48.2,13.1,25.04,North,357,4.0,5.8,24,0.00,,,-99.99,FreeWX 2.04,2013-03-27 14:34:00,
2013-03-27 08:39:00,48.2,13.1,25.04,NNW,346,4.0,5.4,24,0.00,,,-99.99,FreeWX 2.04,2013-03-27 14:39:00,
2013-03-27 08:44:00,48.4,10.2,25.04,NNW,345,4.0,6.3,21,0.00,,,-99.99,FreeWX 2.04,2013-03-27 14:44:00,
2013-03-27 08:49:00,47.8,7.5,25.04,NNW,348,4.0,6.9,19,0.00,,,-99.99,FreeWX 2.04,2013-03-27 14:49:00,
2013-03-27 08:54:00,47.5,9.5,25.04,NNW,338,5.0,6.9,21,0.00,,,-99.99,FreeWX 2.04,2013-03-27 14:54:00,
2013-03-27 08:59:00,47.3,7.2,25.04,NW,322,5.0,7.8,19,0.00,,,-99.99,FreeWX 2.04,2013-03-27 14:59:00,
2013-03-27 09:04:00,47.7,7.5,25.04,NW,311,5.0,7.4,19,0.00,,,-99.99,FreeWX 2.04,2013-03-27 15:04:00,
2013-03-27 09:09:00,47.5,7.3,25.04,NW,315,5.0,7.8,19,0.00,,,-99.99,FreeWX 2.04,2013-03-27 15:09:00,
2013-03-27 09:14:00,46.4,9.7,25.04,NNW,336,6.0,9.6,22,0.00,,,-99.99,FreeWX 2.04,2013-03-27 15:14:00,
2013-03-27 09:19:00,46.8,11.8,25.04,North,351,6.0,9.6,24,0.00,,,-99.99,FreeWX 2.04,2013-03-27 15:19:00,
2013-03-27 09:24:00,46.2,11.5,25.07,North,350,6.0,10.1,24,0.00,,,-99.99,FreeWX 2.04,2013-03-27 15:24:00,
2013-03-27 09:29:00,46.6,11.7,25.07,NNW,346,7.0,11.0,24,0.00,,,-99.99,FreeWX 2.04,2013-03-27 15:29:00,
2013-03-27 09:34:00,47.1,10.2,25.07,North,349,7.0,11.2,22,0.00,,,-99.99,FreeWX 2.04,2013-03-27 15:34:00,
2013-03-27 09:39:00,47.1,10.2,25.04,North,351,7.0,10.5,22,0.00,,,-99.99,FreeWX 2.04,2013-03-27 15:39:00,
2013-03-27 09:44:00,48.0,10.0,25.04,North,353,7.0,10.5,21,0.00,,,-99.99,FreeWX 2.04,2013-03-27 15:44:00,
2013-03-27 09:49:00,48.6,8.2,25.04,North,350,7.0,8.7,19,0.00,,,-99.99,FreeWX 2.04,2013-03-27 15:49:00,
2013-03-27 09:54:00,48.9,8.4,25.07,NNW,342,6.0,7.8,19,0.00,,,-99.99,FreeWX 2.04,2013-03-27 15:54:00,
2013-03-27 09:59:00,49.5,9.0,25.07,NNW,347,6.0,10.1,19,0.00,,,-99.99,FreeWX 2.04,2013-03-27 15:59:00,
2013-03-27 10:04:00,50.0,9.3,25.07,North,355,6.0,8.3,19,0.00,,,-99.99,FreeWX 2.04,2013-03-27 16:04:00,
2013-03-27 10:09:00,50.0,5.5,25.04,NNW,346,5.0,6.9,16,0.00,,,-99.99,FreeWX 2.04,2013-03-27 16:09:00,
2013-03-27 10:14:00,50.7,6.3,25.04,NNW,335,5.0,6.9,16,0.00,,,-99.99,FreeWX 2.04,2013-03-27 16:14:00,
2013-03-27 10:19:00,50.9,6.3,25.04,NW,322,4.0,6.9,16,0.00,,,-99.99,FreeWX 2.04,2013-03-27 16:19:00,
2013-03-27 10:24:00,51.1,6.4,25.07,NW,310,5.0,6.9,16,0.00,,,-99.99,FreeWX 2.04,2013-03-27 16:24:00,
2013-03-27 10:29:00,52.2,7.3,25.07,WNW,303,4.0,6.7,16,0.00,,,-99.99,FreeWX 2.04,2013-03-27 16:29:00,
2013-03-27 10:34:00,52.3,7.5,25.07,WNW,300,4.0,5.8,16,0.00,,,-99.99,FreeWX 2.04,2013-03-27 16:34:00,
2013-03-27 10:39:00,52.7,3.2,25.04,NW,307,3.0,6.3,13,0.00,,,-99.99,FreeWX 2.04,2013-03-27 16:39:00,
2013-03-27 10:44:00,52.7,3.2,25.04,NW,316,4.0,6.7,13,0.00,,,-99.99,FreeWX 2.04,2013-03-27 16:44:00,
2013-03-27 10:49:00,53.2,3.7,25.04,NW,314,3.0,7.4,13,0.00,,,-99.99,FreeWX 2.04,2013-03-27 16:49:00,
2013-03-27 10:54:00,53.4,3.9,25.07,NW,312,3.0,8.3,13,0.00,,,-99.99,FreeWX 2.04,2013-03-27 16:54:00,
2013-03-27 10:59:00,53.2,3.7,25.07,NW,318,5.0,7.8,13,0.00,,,-99.99,FreeWX 2.04,2013-03-27 16:59:00,
2013-03-27 11:04:00,54.3,4.5,25.07,NNW,329,5.0,7.8,13,0.00,,,-99.99,FreeWX 2.04,2013-03-27 17:04:00,
2013-03-27 11:09:00,54.3,4.5,25.04,NNW,334,6.0,8.3,13,0.00,,,-99.99,FreeWX 2.04,2013-03-27 17:09:00,
2013-03-27 11:14:00,55.0,3.4,25.04,NNW,342,6.0,8.3,12,0.00,,,-99.99,FreeWX 2.04,2013-03-27 17:14:00,
2013-03-27 11:19:00,55.9,-99.9,25.04,North,353,5.0,9.6,-999,0.00,,,-99.99,FreeWX 2.04,2013-03-27 17:19:00,
2013-03-27 11:24:00,55.9,-99.9,25.04,North,351,6.0,10.5,-999,0.00,,,-99.99,FreeWX 2.04,2013-03-27 17:24:00,
2013-03-27 11:29:00,56.3,-99.9,25.04,NNW,345,6.0,9.2,-999,0.00,,,-99.99,FreeWX 2.04,2013-03-27 17:29:00,
2013-03-27 11:34:00,56.7,-99.9,25.04,NNW,340,6.0,10.1,-999,0.00,,,-99.99,FreeWX 2.04,2013-03-27 17:34:00,
2013-03-27 11:39:00,55.9,-99.9,25.04,NNW,340,6.0,10.5,-999,0.00,,,-99.99,FreeWX 2.04,2013-03-27 17:39:00,
2013-03-27 11:44:00,56.5,-99.9,25.04,North,349,6.0,10.1,-999,0.00,,,-99.99,FreeWX 2.04,2013-03-27 17:44:00,
2013-03-27 11:49:00,57.2,-99.9,25.04,NNW,345,6.0,9.6,-999,0.00,,,-99.99,FreeWX 2.04,2013-03-27 17:49:00,
2013-03-27 11:54:00,57.4,-99.9,25.04,NNW,339,6.0,11.6,-999,0.00,,,-99.99,FreeWX 2.04,2013-03-27 17:54:00,
2013-03-27 11:59:00,57.6,-99.9,25.04,NNW,343,6.0,9.2,-999,0.00,,,-99.99,FreeWX 2.04,2013-03-27 17:59:00,
2013-03-27 12:04:00,57.9,-99.9,25.04,NNW,339,6.0,7.4,-999,0.00,,,-99.99,FreeWX 2.04,2013-03-27 18:04:00,
2013-03-27 12:09:00,57.6,-99.9,25.04,NW,323,5.0,7.8,-999,0.00,,,-99.99,FreeWX 2.04,2013-03-27 18:09:00,
2013-03-27 12:15:00,58.3,-99.9,25.04,NW,309,4.0,7.8,-999,0.00,,,-99.99,FreeWX 2.04,2013-03-27 18:15:00,
2013-03-27 12:20:00,58.8,-99.9,25.04,WNW,296,5.0,7.4,-999,0.00,,,-99.99,FreeWX 2.04,2013-03-27 18:20:00,
2013-03-27 12:25:00,58.8,-99.9,25.04,West,278,5.0,10.5,-999,0.00,,,-99.99,FreeWX 2.04,2013-03-27 18:25:00,
2013-03-27 12:30:00,60.4,-99.9,25.04,West,274,4.0,7.8,-999,0.00,,,-99.99,FreeWX 2.04,2013-03-27 18:30:00,
2013-03-27 12:35:00,60.3,-99.9,25.04,West,278,4.0,6.9,-999,0.00,,,-99.99,FreeWX 2.04,2013-03-27 18:35:00,
2013-03-27 12:40:00,60.3,-99.9,25.04,WNW,282,3.0,6.9,-999,0.00,,,-99.99,FreeWX 2.04,2013-03-27 18:40:00,
2013-03-27 12:45:00,60.6,-99.9,25.04,West,281,2.0,5.4,-999,0.00,,,-99.99,FreeWX 2.04,2013-03-27 18:45:00,
2013-03-27 12:50:00,61.0,-99.9,25.04,NNW,329,3.0,5.8,-999,0.00,,,-99.99,FreeWX 2.04,2013-03-27 18:50:00,
2013-03-27 12:55:00,62.4,-99.9,25.04,NE,47,3.0,6.3,-999,0.00,,,-99.99,FreeWX 2.04,2013-03-27 18:55:00,
2013-03-27 13:00:00,60.4,-99.9,25.04,NNE,28,4.0,8.7,-999,0.00,,,-99.99,FreeWX 2.04,2013-03-27 19:00:00,
2013-03-27 13:05:00,60.6,-99.9,25.04,NW,324,3.0,8.7,-999,0.00,,,-99.99,FreeWX 2.04,2013-03-27 19:05:00,
2013-03-27 13:10:00,60.1,-99.9,25.04,NNW,341,3.0,7.8,-999,0.00,,,-99.99,FreeWX 2.04,2013-03-27 19:10:00,
2013-03-27 13:15:00,60.4,-99.9,25.04,NNE,19,3.0,5.4,-999,0.00,,,-99.99,FreeWX 2.04,2013-03-27 19:15:00,
2013-03-27 13:20:00,61.7,-99.9,25.04,NNE,30,2.0,4.0,-999,0.00,,,-99.99,FreeWX 2.04,2013-03-27 19:20:00,
2013-03-27 13:25:00,61.3,-99.9,25.01,NNE,20,2.0,6.7,-999,0.00,,,-99.99,FreeWX 2.04,2013-03-27 19:25:00,
2013-03-27 13:30:00,63.0,-99.9,25.01,NNE,16,4.0,6.7,-999,0.00,,,-99.99,FreeWX 2.04,2013-03-27 19:30:00,
2013-03-27 13:35:00,64.2,-99.9,25.01,ENE,57,3.0,7.4,-999,0.00,,,-99.99,FreeWX 2.04,2013-03-27 19:35:00,
2013-03-27 13:40:00,62.4,-99.9,25.01,ESE,122,3.0,7.8,-999,0.00,,,-99.99,FreeWX 2.04,2013-03-27 19:40:00,
2013-03-27 13:45:00,62.1,-99.9,25.01,SW,227,4.0,7.8,-999,0.00,,,-99.99,FreeWX 2.04,2013-03-27 19:45:00,
2013-03-27 13:50:00,62.8,-99.9,25.01,West,260,4.0,8.3,-999,0.00,,,-99.99,FreeWX 2.04,2013-03-27 19:50:00,
2013-03-27 13:55:00,62.8,-99.9,25.01,SW,228,6.0,9.6,-999,0.00,,,-99.99,FreeWX 2.04,2013-03-27 19:55:00,
2013-03-27 14:00:00,63.1,-99.9,25.01,SSW,202,6.0,8.7,-999,0.00,,,-99.99,FreeWX 2.04,2013-03-27 20:00:00,
2013-03-27 14:05:00,63.7,-99.9,25.01,SSW,200,6.0,9.6,-999,0.00,,,-99.99,FreeWX 2.04,2013-03-27 20:05:00,
2013-03-27 14:10:00,63.1,-99.9,25.01,SW,216,7.0,11.0,-999,0.00,,,-99.99,FreeWX 2.04,2013-03-27 20:10:00,
2013-03-27 14:15:00,63.7,-99.9,25.01,SW,234,5.0,6.7,-999,0.00,,,-99.99,FreeWX 2.04,2013-03-27 20:15:00,
2013-03-27 14:20:00,63.9,-99.9,25.01,SW,218,4.0,7.8,-999,0.00,,,-99.99,FreeWX 2.04,2013-03-27 20:20:00,
2013-03-27 14:25:00,63.5,-99.9,25.01,SE,133,5.0,7.8,-999,0.00,,,-99.99,FreeWX 2.04,2013-03-27 20:25:00,
2013-03-27 14:30:00,64.0,-99.9,25.01,ESE,104,5.0,8.3,-999,0.00,,,-99.99,FreeWX 2.04,2013-03-27 20:30:00,
2013-03-27 14:35:00,64.6,-99.9,25.01,ESE,102,4.0,5.8,-999,0.00,,,-99.99,FreeWX 2.04,2013-03-27 20:35:00,
2013-03-27 14:40:00,65.1,-99.9,24.98,ESE,106,4.0,11.0,-999,0.00,,,-99.99,FreeWX 2.04,2013-03-27 20:40:00,
2013-03-27 14:45:00,64.4,-99.9,24.98,SSE,157,4.0,9.2,-999,0.00,,,-99.99,FreeWX 2.04,2013-03-27 20:45:00,
2013-03-27 14:50:00,64.6,-99.9,24.98,South,186,5.0,9.2,-999,0.00,,,-99.99,FreeWX 2.04,2013-03-27 20:50:00,
2013-03-27 14:55:00,64.4,-99.9,24.98,SSW,205,5.0,9.6,-999,0.00,,,-99.99,FreeWX 2.04,2013-03-27 20:55:00,
2013-03-27 15:00:00,65.8,-99.9,24.98,WSW,255,3.0,5.8,-999,0.00,,,-99.99,FreeWX 2.04,2013-03-27 21:00:00,
2013-03-27 15:05:00,65.5,-99.9,24.98,WSW,239,4.0,9.6,-999,0.00,,,-99.99,FreeWX 2.04,2013-03-27 21:05:00,
2013-03-27 15:10:00,63.7,-99.9,24.98,SW,231,6.0,11.0,-999,0.00,,,-99.99,FreeWX 2.04,2013-03-27 21:10:00,
2013-03-27 15:15:00,64.8,-99.9,24.98,SW,227,7.0,14.3,-999,0.00,,,-99.99,FreeWX 2.04,2013-03-27 21:15:00,
2013-03-27 15:20:00,65.3,-99.9,24.98,SSW,196,7.0,13.9,-999,0.00,,,-99.99,FreeWX 2.04,2013-03-27 21:20:00,
2013-03-27 15:25:00,65.7,-99.9,24.98,South,190,5.0,6.7,-999,0.00,,,-99.99,FreeWX 2.04,2013-03-27 21:25:00,
2013-03-27 15:30:00,66.0,-99.9,24.98,SW,214,4.0,11.2,-999,0.00,,,-99.99,FreeWX 2.04,2013-03-27 21:30:00,
2013-03-27 15:35:00,64.6,-99.9,24.98,WSW,253,7.0,14.3,-999,0.00,,,-99.99,FreeWX 2.04,2013-03-27 21:35:00,
2013-03-27 15:40:00,64.9,-99.9,24.98,West,269,7.0,10.1,-999,0.00,,,-99.99,FreeWX 2.04,2013-03-27 21:40:00,
2013-03-27 15:45:00,66.4,-99.9,24.98,West,274,4.0,6.7,-999,0.00,,,-99.99,FreeWX 2.04,2013-03-27 21:45:00,
2013-03-27 15:50:00,65.8,-99.9,24.98,West,278,4.0,6.9,-999,0.00,,,-99.99,FreeWX 2.04,2013-03-27 21:50:00,
2013-03-27 15:55:00,65.7,-99.9,24.98,NW,309,5.0,8.3,-999,0.00,,,-99.99,FreeWX 2.04,2013-03-27 21:55:00,
2013-03-27 16:01:00,65.5,-99.9,24.98,NNW,345,6.0,8.3,-999,0.00,,,-99.99,FreeWX 2.04,2013-03-27 22:01:00,
2013-03-27 16:06:00,65.1,-99.9,24.98,NNW,348,6.0,8.7,-999,0.00,,,-99.99,FreeWX 2.04,2013-03-27 22:06:00,
2013-03-27 16:11:00,65.1,-99.9,24.98,North,358,6.0,8.7,-999,0.00,,,-99.99,FreeWX 2.04,2013-03-27 22:11:00,
2013-03-27 16:16:00,65.8,-99.9,24.98,NNE,12,5.0,9.6,-999,0.00,,,-99.99,FreeWX 2.04,2013-03-27 22:16:00,
2013-03-27 16:21:00,65.7,-99.9,24.95,NNE,13,6.0,11.0,-999,0.00,,,-99.99,FreeWX 2.04,2013-03-27 22:21:00,
2013-03-27 16:26:00,65.7,-99.9,24.95,NNE,25,5.0,7.8,-999,0.00,,,-99.99,FreeWX 2.04,2013-03-27 22:26:00,
2013-03-27 16:31:00,66.7,-99.9,24.95,NE,42,3.0,6.7,-999,0.00,,,-99.99,FreeWX 2.04,2013-03-27 22:31:00,
2013-03-27 16:36:00,67.1,-99.9,24.95,NNE,32,4.0,7.4,-999,0.00,,,-99.99,FreeWX 2.04,2013-03-27 22:36:00,
2013-03-27 16:41:00,66.7,-99.9,24.95,NNW,328,4.0,7.4,-999,0.00,,,-99.99,FreeWX 2.04,2013-03-27 22:41:00,
2013-03-27 16:51:00,66.4,-99.9,24.95,North,350,6.0,10.5,-999,0.00,,,-99.99,FreeWX 2.04,2013-03-27 22:51:00,
2013-03-27 16:56:00,66.4,-99.9,24.95,NNE,18,5.0,8.7,-999,0.00,,,-99.99,FreeWX 2.04,2013-03-27 22:56:00,
2013-03-27 17:01:00,66.6,-99.9,24.95,NE,43,5.0,8.3,-999,0.00,,,-99.99,FreeWX 2.04,2013-03-27 23:01:00,
2013-03-27 17:06:00,66.4,-99.9,24.95,NE,43,5.0,6.7,-999,0.00,,,-99.99,FreeWX 2.04,2013-03-27 23:06:00,
2013-03-27 17:11:00,66.0,-99.9,24.95,NNE,16,5.0,7.8,-999,0.00,,,-99.99,FreeWX 2.04,2013-03-27 23:11:00,
2013-03-27 17:16:00,66.6,-99.9,24.95,NNW,341,4.0,6.9,-999,0.00,,,-99.99,FreeWX 2.04,2013-03-27 23:16:00,
2013-03-27 17:21:00,67.1,-99.9,24.95,NW,321,2.0,6.7,-999,0.00,,,-99.99,FreeWX 2.04,2013-03-27 23:21:00,
2013-03-27 17:26:00,66.6,-99.9,24.95,NNW,337,4.0,7.8,-999,0.00,,,-99.99,FreeWX 2.04,2013-03-27 23:26:00,
2013-03-27 17:31:00,67.3,-99.9,24.95,North,355,5.0,11.2,-999,0.00,,,-99.99,FreeWX 2.04,2013-03-27 23:31:00,
2013-03-27 17:36:00,67.1,-99.9,24.95,North,7,6.0,8.7,-999,0.00,,,-99.99,FreeWX 2.04,2013-03-27 23:36:00,
2013-03-27 17:41:00,66.7,-99.9,24.95,North,11,6.0,9.2,-999,0.00,,,-99.99,FreeWX 2.04,2013-03-27 23:41:00,
2013-03-27 17:47:00,66.4,-99.9,24.95,North,359,4.0,6.3,-999,0.00,,,-99.99,FreeWX 2.04,2013-03-27 23:47:00,
2013-03-27 17:52:00,66.0,-99.9,24.95,WNW,294,5.0,9.6,-999,0.00,,,-99.99,FreeWX 2.04,2013-03-27 23:52:00,
2013-03-27 17:57:00,66.2,-99.9,24.95,SW,227,6.0,7.4,-999,0.00,,,-99.99,FreeWX 2.04,2013-03-27 23:57:00,
2013-03-27 18:02:00,66.6,-99.9,24.95,SSW,193,4.0,6.3,-999,0.00,,,-99.99,FreeWX 2.04,2013-03-28 00:02:00,
2013-03-27 18:07:00,66.4,-99.9,24.95,ESE,105,3.0,6.7,-999,0.00,,,-99.99,FreeWX 2.04,2013-03-28 00:07:00,
2013-03-27 18:12:00,66.0,-99.9,24.95,NNE,33,4.0,7.8,-999,0.00,,,-99.99,FreeWX 2.04,2013-03-28 00:12:00,
2013-03-27 18:17:00,66.6,-99.9,24.95,NNE,29,4.0,10.5,-999,0.00,,,-99.99,FreeWX 2.04,2013-03-28 00:17:00,
2013-03-27 18:22:00,66.6,-99.9,24.95,East,90,4.0,8.7,-999,0.00,,,-99.99,FreeWX 2.04,2013-03-28 00:22:00,
2013-03-27 18:27:00,66.6,-99.9,24.95,ESE,120,5.0,7.8,-999,0.00,,,-99.99,FreeWX 2.04,2013-03-28 00:27:00,
2013-03-27 18:37:00,65.5,-99.9,24.98,SE,129,7.0,9.6,-999,0.00,,,-99.99,FreeWX 2.04,2013-03-28 00:37:00,
2013-03-27 18:42:00,65.7,-99.9,24.98,SE,124,6.0,10.1,-999,0.00,,,-99.99,FreeWX 2.04,2013-03-28 00:42:00,
2013-03-27 18:47:00,65.3,-99.9,24.98,ESE,117,6.0,10.5,-999,0.00,,,-99.99,FreeWX 2.04,2013-03-28 00:47:00,
2013-03-27 18:52:00,65.1,-99.9,24.98,ESE,119,7.0,11.2,-999,0.00,,,-99.99,FreeWX 2.04,2013-03-28 00:52:00,
2013-03-27 18:57:00,64.8,-99.9,24.98,SE,126,6.0,8.7,-999,0.00,,,-99.99,FreeWX 2.04,2013-03-28 00:57:00,
2013-03-27 19:02:00,64.2,-99.9,24.98,SE,130,6.0,10.5,-999,0.00,,,-99.99,FreeWX 2.04,2013-03-28 01:02:00,
2013-03-27 19:07:00,63.7,-99.9,24.98,SE,135,6.0,11.2,-999,0.00,,,-99.99,FreeWX 2.04,2013-03-28 01:07:00,
2013-03-27 19:12:00,63.1,-99.9,24.98,SE,136,6.0,8.7,-999,0.00,,,-99.99,FreeWX 2.04,2013-03-28 01:12:00,
2013-03-27 19:17:00,63.1,-99.9,24.98,SE,132,6.0,9.6,-999,0.00,,,-99.99,FreeWX 2.04,2013-03-28 01:17:00,
2013-03-27 19:22:00,62.8,-99.9,24.98,SE,135,6.0,11.6,-999,0.00,,,-99.99,FreeWX 2.04,2013-03-28 01:22:00,
2013-03-27 19:27:00,62.2,-99.9,24.98,SE,139,6.0,10.1,-999,0.00,,,-99.99,FreeWX 2.04,2013-03-28 01:27:00,
2013-03-27 19:32:00,61.9,-99.9,24.98,SE,131,6.0,8.7,-999,0.00,,,-99.99,FreeWX 2.04,2013-03-28 01:32:00,
2013-03-27 19:37:00,61.3,-99.9,24.98,SE,126,5.0,6.9,-999,0.00,,,-99.99,FreeWX 2.04,2013-03-28 01:37:00,
2013-03-27 19:42:00,60.6,-99.9,24.98,SE,125,4.0,5.8,-999,0.00,,,-99.99,FreeWX 2.04,2013-03-28 01:42:00,
2013-03-27 19:47:00,59.9,-99.9,24.98,ESE,116,5.0,6.7,-999,0.00,,,-99.99,FreeWX 2.04,2013-03-28 01:47:00,
2013-03-27 19:52:00,59.4,-99.9,24.98,ESE,109,5.0,6.9,-999,0.00,,,-99.99,FreeWX 2.04,2013-03-28 01:52:00,
2013-03-27 19:57:00,59.0,-99.9,24.98,ESE,108,5.0,6.3,-999,0.00,,,-99.99,FreeWX 2.04,2013-03-28 01:57:00,
2013-03-27 20:02:00,58.6,-99.9,24.98,ESE,106,4.0,7.4,-999,0.00,,,-99.99,FreeWX 2.04,2013-03-28 02:02:00,
2013-03-27 20:07:00,59.0,-99.9,24.98,ESE,109,4.0,6.9,-999,0.00,,,-99.99,FreeWX 2.04,2013-03-28 02:07:00,
2013-03-27 20:12:00,59.2,-99.9,24.98,ESE,113,5.0,8.3,-999,0.00,,,-99.99,FreeWX 2.04,2013-03-28 02:12:00,
2013-03-27 20:17:00,59.5,-99.9,24.98,ESE,116,6.0,10.5,-999,0.00,,,-99.99,FreeWX 2.04,2013-03-28 02:17:00,
2013-03-27 20:22:00,59.2,-99.9,24.98,ESE,117,7.0,10.5,-999,0.00,,,-99.99,FreeWX 2.04,2013-03-28 02:22:00,
2013-03-27 20:27:00,58.8,-99.9,24.98,ESE,111,6.0,11.0,-999,0.00,,,-99.99,FreeWX 2.04,2013-03-28 02:27:00,
2013-03-27 20:32:00,58.5,-99.9,24.98,ESE,104,6.0,9.6,-999,0.00,,,-99.99,FreeWX 2.04,2013-03-28 02:32:00,
2013-03-27 20:37:00,58.1,-99.9,24.98,East,101,6.0,9.2,-999,0.00,,,-99.99,FreeWX 2.04,2013-03-28 02:37:00,
2013-03-27 20:42:00,57.9,-99.9,24.98,ESE,102,6.0,10.1,-999,0.00,,,-99.99,FreeWX 2.04,2013-03-28 02:42:00,
2013-03-27 20:47:00,58.1,-99.9,24.98,ESE,105,6.0,9.6,-999,0.00,,,-99.99,FreeWX 2.04,2013-03-28 02:47:00,
2013-03-27 20:52:00,58.1,-99.9,24.98,ESE,108,6.0,8.7,-999,0.00,,,-99.99,FreeWX 2.04,2013-03-28 02:52:00,
2013-03-27 20:58:00,58.1,-99.9,24.98,ESE,108,6.0,11.6,-999,0.00,,,-99.99,FreeWX 2.04,2013-03-28 02:58:00,
2013-03-27 21:03:00,58.1,-99.9,24.98,ESE,110,6.0,11.0,-999,0.00,,,-99.99,FreeWX 2.04,2013-03-28 03:03:00,
2013-03-27 21:08:00,58.5,-99.9,24.98,ESE,110,6.0,11.2,-999,0.00,,,-99.99,FreeWX 2.04,2013-03-28 03:08:00,
2013-03-27 21:13:00,58.1,-99.9,24.98,ESE,110,6.0,9.6,-999,0.00,,,-99.99,FreeWX 2.04,2013-03-28 03:13:00,
2013-03-27 21:18:00,57.7,-99.9,24.98,ESE,107,6.0,10.1,-999,0.00,,,-99.99,FreeWX 2.04,2013-03-28 03:18:00,
2013-03-27 21:23:00,57.4,-99.9,24.98,ESE,102,6.0,9.2,-999,0.00,,,-99.99,FreeWX 2.04,2013-03-28 03:23:00,
2013-03-27 21:28:00,57.2,-99.9,24.98,East,96,6.0,9.2,-999,0.00,,,-99.99,FreeWX 2.04,2013-03-28 03:28:00,
2013-03-27 21:33:00,57.6,-99.9,24.98,East,99,6.0,9.6,-999,0.00,,,-99.99,FreeWX 2.04,2013-03-28 03:33:00,
2013-03-27 21:38:00,57.6,-99.9,25.01,East,101,6.0,9.6,-999,0.00,,,-99.99,FreeWX 2.04,2013-03-28 03:38:00,
2013-03-27 21:43:00,56.8,-99.9,25.01,ESE,106,4.0,6.9,-999,0.00,,,-99.99,FreeWX 2.04,2013-03-28 03:43:00,
2013-03-27 21:48:00,55.8,-99.9,25.01,WSW,258,5.0,8.3,-999,0.00,,,-99.99,FreeWX 2.04,2013-03-28 03:48:00,
2013-03-27 21:53:00,55.8,-99.9,25.01,West,275,6.0,7.4,-999,0.00,,,-99.99,FreeWX 2.04,2013-03-28 03:53:00,
2013-03-27 21:58:00,55.8,-99.9,25.01,West,276,3.0,4.0,-999,0.00,,,-99.99,FreeWX 2.04,2013-03-28 03:58:00,
2013-03-27 22:03:00,55.6,-99.9,25.01,North,-999,0.0,2.7,-999,0.00,,,-99.99,FreeWX 2.04,2013-03-28 04:03:00,
2013-03-27 22:08:00,55.8,-99.9,25.01,West,276,2.0,4.9,-999,0.00,,,-99.99,FreeWX 2.04,2013-03-28 04:08:00,
2013-03-27 22:13:00,55.8,-99.9,25.01,West,276,3.0,4.9,-999,0.00,,,-99.99,FreeWX 2.04,2013-03-28 04:13:00,
2013-03-27 22:18:00,56.3,-99.9,25.01,West,276,3.0,5.4,-999,0.00,,,-99.99,FreeWX 2.04,2013-03-28 04:18:00,
2013-03-27 22:23:00,56.3,-99.9,25.01,West,276,2.0,4.5,-999,0.00,,,-99.99,FreeWX 2.04,2013-03-28 04:23:00,
2013-03-27 22:28:00,56.5,-99.9,25.01,West,276,1.0,4.0,-999,0.00,,,-99.99,FreeWX 2.04,2013-03-28 04:28:00,
2013-03-27 22:33:00,55.9,-99.9,25.01,West,276,1.0,4.9,-999,0.00,,,-99.99,FreeWX 2.04,2013-03-28 04:33:00,
2013-03-27 22:38:00,55.4,-99.9,25.01,West,276,2.0,5.8,-999,0.00,,,-99.99,FreeWX 2.04,2013-03-28 04:38:00,
2013-03-27 22:43:00,54.7,-99.9,25.01,West,277,2.0,4.0,-999,0.00,,,-99.99,FreeWX 2.04,2013-03-28 04:43:00,
2013-03-27 22:48:00,54.3,-99.9,25.01,North,-999,0.0,3.6,-999,0.00,,,-99.99,FreeWX 2.04,2013-03-28 04:48:00,
2013-03-27 22:53:00,53.8,-99.9,25.01,West,277,1.0,5.4,-999,0.00,,,-99.99,FreeWX 2.04,2013-03-28 04:53:00,
2013-03-27 22:58:00,53.4,-99.9,25.01,West,276,2.0,4.0,-999,0.00,,,-99.99,FreeWX 2.04,2013-03-28 04:58:00,
2013-03-27 23:03:00,53.1,-99.9,25.01,West,276,2.0,4.5,-999,0.00,,,-99.99,FreeWX 2.04,2013-03-28 05:03:00,
2013-03-27 23:08:00,52.9,-99.9,25.01,West,277,2.0,4.9,-999,0.00,,,-99.99,FreeWX 2.04,2013-03-28 05:08:00,
2013-03-27 23:13:00,52.7,-99.9,25.01,West,277,2.0,4.9,-999,0.00,,,-99.99,FreeWX 2.04,2013-03-28 05:13:00,
2013-03-27 23:18:00,52.5,-99.9,25.01,West,276,3.0,5.8,-999,0.00,,,-99.99,FreeWX 2.04,2013-03-28 05:18:00,
2013-03-27 23:23:00,52.3,-99.9,25.01,West,276,3.0,4.9,-999,0.00,,,-99.99,FreeWX 2.04,2013-03-28 05:23:00,
2013-03-27 23:28:00,52.2,-99.9,25.01,West,277,1.0,5.4,-999,0.00,,,-99.99,FreeWX 2.04,2013-03-28 05:28:00,
2013-03-27 23:33:00,52.0,-99.9,25.01,North,-999,0.0,3.6,-999,0.00,,,-99.99,FreeWX 2.04,2013-03-28 05:33:00,
2013-03-27 23:38:00,52.3,-99.9,25.01,North,-999,0.0,3.1,-999,0.00,,,-99.99,FreeWX 2.04,2013-03-28 05:38:00,
2013-03-27 23:43:00,52.3,-99.9,25.01,West,277,1.0,3.6,-999,0.00,,,-99.99,FreeWX 2.04,2013-03-28 05:43:00,
2013-03-27 23:48:00,53.1,-99.9,25.01,West,277,2.0,4.9,-999,0.00,,,-99.99,FreeWX 2.04,2013-03-28 05:48:00,
2013-03-27 23:53:00,53.2,-99.9,25.01,West,277,3.0,4.9,-999,0.00,,,-99.99,FreeWX 2.04,2013-03-28 05:53:00,
2013-03-27 23:58:00,53.8,-99.9,25.01,West,266,4.0,7.8,-999,0.00,,,-99.99,FreeWX 2.04,2013-03-28 05:58:00,